Time;durP1;ratioP1;P1;durP2;ratioP2;P2;SDS_P1;SDS_P2;PMS_P1;PMS_P2;Temp;Humidity;BMP_temperature;BMP_pressure;BME280_temperature;BME280_humidity;BME280_pressure;Samples;Min_cycle;Max_cycle;Signal;HPM_P1;HPM_P2
2023/10/04 00:01:09;;;;;;;6.35;1.38;;;13.00;99.90;;;;;;5004372;28;20115;-67
2023/10/04 00:03:36;;;;;;;4.57;1.15;;;13.00;99.90;;;;;;4982992;28;20070;-67
2023/10/04 00:06:02;;;;;;;6.40;1.30;;;12.90;99.90;;;;;;5000230;28;20042;-81
2023/10/04 00:08:29;;;;;;;7.78;1.55;;;12.90;99.90;;;;;;5006957;28;20057;-79
2023/10/04 00:10:54;;;;;;;6.05;1.58;;;13.00;99.90;;;;;;5005779;28;20508;-80
2023/10/04 00:13:20;;;;;;;6.30;1.20;;;13.00;99.90;;;;;;4990406;28;20056;-67
2023/10/04 00:15:46;;;;;;;15.85;1.60;;;12.90;99.90;;;;;;5007044;28;20504;-67
2023/10/04 00:18:12;;;;;;;3.65;1.45;;;13.00;99.90;;;;;;4982964;28;20061;-67
2023/10/04 00:20:38;;;;;;;4.43;0.90;;;12.90;99.90;;;;;;5007985;28;20131;-67
2023/10/04 00:23:05;;;;;;;9.55;1.77;;;12.90;99.90;;;;;;5005923;28;20173;-80
2023/10/04 00:25:33;;;;;;;10.93;1.83;;;12.90;99.90;;;;;;5007786;28;20045;-67
2023/10/04 00:27:59;;;;;;;7.18;1.40;;;12.90;99.90;;;;;;5005677;28;20045;-66
2023/10/04 00:30:30;;;;;;;6.50;1.63;;;12.90;99.90;;;;;;5007775;28;20511;-67
2023/10/04 00:32:57;;;;;;;6.35;1.50;;;12.80;99.90;;;;;;5006555;28;20046;-67
2023/10/04 00:35:25;;;;;;;7.97;1.50;;;12.80;99.90;;;;;;5006406;28;20121;-67
2023/10/04 00:38:00;;;;;;;6.45;1.63;;;12.80;99.90;;;;;;5007489;28;20046;-85
2023/10/04 00:40:33;;;;;;;9.55;2.20;;;12.80;99.90;;;;;;4988000;28;20046;-68
2023/10/04 00:43:13;;;;;;;12.18;2.05;;;12.80;99.90;;;;;;5007678;28;20053;-74
2023/10/04 00:45:39;;;;;;;7.00;1.42;;;12.80;99.90;;;;;;4991811;28;20061;-67
2023/10/04 00:48:13;;;;;;;6.50;1.50;;;12.80;99.90;;;;;;5006456;28;20081;-67
2023/10/04 00:50:39;;;;;;;4.13;1.55;;;12.80;99.90;;;;;;5006907;28;20080;-67
2023/10/04 00:53:07;;;;;;;7.47;2.08;;;12.80;99.90;;;;;;4995171;28;20053;-67
2023/10/04 00:55:40;;;;;;;7.63;1.58;;;12.80;99.90;;;;;;5005375;28;20093;-68
2023/10/04 00:58:07;;;;;;;8.32;1.33;;;12.80;99.90;;;;;;5005918;28;20049;-67
2023/10/04 01:00:36;;;;;;;6.47;1.50;;;12.80;99.90;;;;;;4989649;28;20143;-67
2023/10/04 01:03:03;;;;;;;14.38;1.98;;;12.80;99.90;;;;;;4986615;28;20034;-79
2023/10/04 01:05:29;;;;;;;9.43;1.85;;;12.70;99.90;;;;;;5006421;28;20046;-67
2023/10/04 01:07:56;;;;;;;5.95;1.10;;;12.70;99.90;;;;;;4977156;28;20056;-85
2023/10/04 01:10:27;;;;;;;5.25;1.30;;;12.70;99.90;;;;;;4989635;28;20057;-67
2023/10/04 01:12:52;;;;;;;5.53;1.60;;;12.70;99.90;;;;;;4992821;28;20057;-67
2023/10/04 01:15:31;;;;;;;5.97;1.50;;;12.60;99.90;;;;;;5008167;28;20050;-67
2023/10/04 01:18:02;;;;;;;6.15;1.10;;;12.60;99.90;;;;;;5010414;28;20137;-67
2023/10/04 01:20:28;;;;;;;7.82;1.77;;;12.60;99.90;;;;;;5010270;28;20054;-67
2023/10/04 01:23:01;;;;;;;5.80;1.58;;;12.60;99.90;;;;;;5008721;28;20061;-85
2023/10/04 01:25:28;;;;;;;9.55;1.52;;;12.60;99.90;;;;;;4996006;28;20060;-69
2023/10/04 01:27:54;;;;;;;4.72;1.20;;;12.60;99.90;;;;;;4987001;28;20085;-67
2023/10/04 01:30:20;;;;;;;5.43;1.60;;;12.60;99.90;;;;;;4991047;28;20081;-67
2023/10/04 01:32:50;;;;;;;7.15;1.52;;;12.50;99.90;;;;;;4988662;28;20050;-66
2023/10/04 01:35:18;;;;;;;9.27;2.10;;;12.50;99.90;;;;;;5010701;28;20054;-66
2023/10/04 01:37:44;;;;;;;6.22;1.65;;;12.50;99.90;;;;;;5009979;28;20411;-66
2023/10/04 01:40:12;;;;;;;11.48;1.70;;;12.50;99.90;;;;;;5009908;28;20038;-66
2023/10/04 01:42:41;;;;;;;10.43;1.73;;;12.50;99.90;;;;;;4991446;28;20121;-66
2023/10/04 01:45:12;;;;;;;6.00;1.52;;;12.50;99.90;;;;;;4990836;28;20057;-66
2023/10/04 01:47:41;;;;;;;3.78;1.48;;;12.40;99.90;;;;;;5010192;28;20053;-75
2023/10/04 01:50:09;;;;;;;10.93;1.50;;;12.40;99.90;;;;;;5008461;28;20461;-72
2023/10/04 01:52:36;;;;;;;9.80;1.88;;;12.40;99.90;;;;;;4989503;28;20058;-66
2023/10/04 01:55:05;;;;;;;8.38;1.48;;;12.40;99.90;;;;;;4991597;28;20157;-66
2023/10/04 01:57:33;;;;;;;9.82;1.35;;;12.40;99.90;;;;;;5009598;28;20053;-66
2023/10/04 01:59:59;;;;;;;4.55;1.13;;;12.40;99.90;;;;;;5010227;28;20042;-66
2023/10/04 02:02:24;;;;;;;9.63;1.70;;;12.40;99.90;;;;;;5006903;28;20041;-66
2023/10/04 02:04:54;;;;;;;5.60;1.33;;;12.40;99.90;;;;;;4992245;28;20052;-66
2023/10/04 02:07:23;;;;;;;6.63;1.42;;;12.40;99.90;;;;;;5008142;28;20073;-66
2023/10/04 02:09:52;;;;;;;7.45;1.92;;;12.50;99.90;;;;;;5010175;28;20061;-66
2023/10/04 02:12:18;;;;;;;14.15;2.17;;;12.40;99.90;;;;;;4987243;28;20563;-66
2023/10/04 02:14:47;;;;;;;4.40;1.23;;;12.40;99.90;;;;;;5009734;28;20049;-66
2023/10/04 02:17:17;;;;;;;7.38;1.40;;;12.40;99.90;;;;;;5022369;28;20128;-66
2023/10/04 02:19:46;;;;;;;8.68;1.50;;;12.40;99.90;;;;;;5027858;28;20411;-83
2023/10/04 02:22:15;;;;;;;8.80;1.77;;;12.40;99.90;;;;;;5028494;28;20088;-66
2023/10/04 02:24:41;;;;;;;9.38;1.75;;;12.30;99.90;;;;;;5026830;28;20368;-67
2023/10/04 02:27:07;;;;;;;3.58;1.60;;;12.30;99.90;;;;;;5029392;28;20048;-66
2023/10/04 02:29:38;;;;;;;9.73;1.88;;;12.30;99.90;;;;;;5010482;28;20503;-66
2023/10/04 02:32:11;;;;;;;10.25;1.60;;;12.30;99.90;;;;;;5028005;28;20049;-67
2023/10/04 02:34:38;;;;;;;7.28;1.83;;;12.30;99.90;;;;;;5028161;28;20099;-66
2023/10/04 02:37:07;;;;;;;11.15;1.55;;;12.30;99.90;;;;;;5027693;28;20045;-66
2023/10/04 02:39:39;;;;;;;14.00;3.03;;;12.30;99.90;;;;;;5029273;28;20050;-66
2023/10/04 02:42:11;;;;;;;8.77;1.33;;;12.30;99.90;;;;;;5009865;28;20128;-66
2023/10/04 02:44:37;;;;;;;6.28;1.60;;;12.30;99.90;;;;;;5027633;28;20053;-66
2023/10/04 02:47:06;;;;;;;7.22;1.50;;;12.30;99.90;;;;;;5009841;28;20419;-66
2023/10/04 02:49:37;;;;;;;14.13;2.00;;;12.20;99.90;;;;;;5010695;28;20033;-66
2023/10/04 02:52:06;;;;;;;14.38;2.20;;;12.30;99.90;;;;;;5029461;28;20060;-66
2023/10/04 02:54:32;;;;;;;9.45;1.92;;;12.30;99.90;;;;;;5007664;28;20505;-66
2023/10/04 02:57:00;;;;;;;5.22;1.30;;;12.30;99.90;;;;;;5028934;28;20049;-66
2023/10/04 02:59:26;;;;;;;10.52;1.67;;;12.30;99.90;;;;;;5026997;28;20041;-66
2023/10/04 03:01:52;;;;;;;7.32;1.50;;;12.30;99.90;;;;;;5029048;28;20056;-66
2023/10/04 03:04:20;;;;;;;12.30;1.48;;;12.30;99.90;;;;;;5026804;28;20479;-67
2023/10/04 03:06:46;;;;;;;7.97;1.60;;;12.40;99.90;;;;;;5010007;28;20057;-67
2023/10/04 03:09:12;;;;;;;8.50;1.70;;;12.40;99.90;;;;;;5027826;28;20049;-66
2023/10/04 03:11:42;;;;;;;7.90;1.40;;;12.40;99.90;;;;;;4993662;28;20071;-67
2023/10/04 03:14:11;;;;;;;10.23;2.05;;;12.40;99.90;;;;;;5027813;28;20045;-74
2023/10/04 03:16:40;;;;;;;7.55;1.73;;;12.40;99.90;;;;;;5020339;28;20526;-66
2023/10/04 03:19:06;;;;;;;9.98;1.67;;;12.40;99.90;;;;;;5027892;28;20586;-67
2023/10/04 03:21:37;;;;;;;14.40;3.13;;;12.40;99.90;;;;;;4991669;28;20149;-67
2023/10/04 03:24:10;;;;;;;6.13;1.45;;;12.50;99.90;;;;;;5010350;28;20132;-74
2023/10/04 03:26:37;;;;;;;6.20;1.38;;;12.40;99.90;;;;;;5027364;28;20053;-67
2023/10/04 03:29:04;;;;;;;14.73;1.67;;;12.50;99.90;;;;;;5009210;28;20120;-72
2023/10/04 03:31:31;;;;;;;5.95;1.30;;;12.50;99.90;;;;;;5000289;28;20080;-81
2023/10/04 03:33:57;;;;;;;8.80;1.77;;;12.50;99.90;;;;;;5026595;28;20052;-81
2023/10/04 03:36:25;;;;;;;12.27;2.03;;;12.50;99.90;;;;;;5018655;28;20053;-66
2023/10/04 03:38:50;;;;;;;7.13;1.92;;;12.50;99.90;;;;;;5027356;28;20064;-66
2023/10/04 03:41:16;;;;;;;9.27;1.67;;;12.50;99.90;;;;;;5018031;28;20498;-66
2023/10/04 03:43:42;;;;;;;9.00;1.67;;;12.50;99.90;;;;;;5027282;28;20041;-67
2023/10/04 03:46:17;;;;;;;9.80;1.75;;;12.50;99.90;;;;;;5024974;28;20578;-67
2023/10/04 03:48:47;;;;;;;6.78;1.10;;;12.50;99.90;;;;;;5017925;28;20378;-83
2023/10/04 03:51:13;;;;;;;;;;;12.50;99.90;;;;;;5022121;28;20131;-82
2023/10/04 03:53:41;;;;;;;6.43;1.08;;;12.50;99.90;;;;;;5009004;28;19975;-68
2023/10/04 03:56:10;;;;;;;9.65;1.60;;;12.60;99.90;;;;;;5001891;28;20084;-67
2023/10/04 03:58:36;;;;;;;4.75;1.17;;;12.60;99.90;;;;;;5027020;28;20079;-67
2023/10/04 04:01:03;;;;;;;9.50;1.65;;;12.80;99.90;;;;;;5027145;28;20049;-67
2023/10/04 04:03:30;;;;;;;7.40;1.50;;;12.80;99.90;;;;;;5025993;28;20028;-67
2023/10/04 04:05:56;;;;;;;6.25;1.40;;;12.80;99.90;;;;;;5028157;28;20502;-67
2023/10/04 04:08:22;;;;;;;6.15;2.13;;;12.90;99.90;;;;;;5017477;28;20068;-67
2023/10/04 04:10:50;;;;;;;6.38;1.55;;;12.80;99.90;;;;;;5027921;28;20124;-68
2023/10/04 04:13:15;;;;;;;11.45;1.42;;;12.80;99.90;;;;;;5025608;28;20049;-67
2023/10/04 04:15:41;;;;;;;7.25;1.60;;;12.80;99.90;;;;;;5027681;28;20072;-67
2023/10/04 04:18:13;;;;;;;10.52;1.88;;;12.80;99.90;;;;;;5025166;28;20484;-67
2023/10/04 04:20:41;;;;;;;16.15;1.70;;;12.70;99.90;;;;;;5026795;28;20045;-67
2023/10/04 04:23:08;;;;;;;6.90;1.60;;;12.70;99.90;;;;;;5009744;28;20045;-67
2023/10/04 04:25:34;;;;;;;10.85;1.75;;;12.70;99.90;;;;;;5007620;28;20053;-66
2023/10/04 04:28:02;;;;;;;9.77;2.05;;;12.70;99.90;;;;;;5024719;28;20034;-66
2023/10/04 04:30:31;;;;;;;9.45;1.77;;;12.60;99.90;;;;;;5016278;28;20045;-67
2023/10/04 04:32:57;;;;;;;5.70;1.27;;;12.70;99.90;;;;;;5027170;28;20368;-67
2023/10/04 04:38:22;;;;;;;6.60;1.45;;;12.70;99.90;;;;;;5025941;28;20057;-67
2023/10/04 04:40:52;;;;;;;5.40;1.60;;;12.70;99.90;;;;;;5000975;28;20049;-67
2023/10/04 04:45:59;;;;;;;3.58;1.08;;;12.60;99.90;;;;;;5029863;28;20332;-66
2023/10/04 04:48:30;;;;;;;9.10;2.15;;;12.60;99.90;;;;;;5012219;28;20049;-67
2023/10/04 04:50:58;;;;;;;8.60;1.92;;;12.60;99.90;;;;;;5029265;28;20080;-67
2023/10/04 04:53:27;;;;;;;4.65;1.50;;;12.60;99.90;;;;;;5030836;28;20384;-67
2023/10/04 04:55:53;;;;;;;6.38;1.77;;;12.60;99.90;;;;;;5012007;28;20058;-67
2023/10/04 04:58:22;;;;;;;9.20;1.85;;;12.60;99.90;;;;;;5013215;28;20037;-67
2023/10/04 05:00:50;;;;;;;7.80;1.20;;;12.50;99.90;;;;;;5028125;28;20041;-67
2023/10/04 05:03:19;;;;;;;4.78;1.50;;;12.60;99.90;;;;;;5031093;28;20047;-67
2023/10/04 05:05:49;;;;;;;11.30;2.03;;;12.50;99.90;;;;;;5012257;28;20099;-67
2023/10/04 05:08:15;;;;;;;;;;;12.50;99.90;;;;;;5013339;28;20053;-67
2023/10/04 05:10:43;;;;;;;13.18;1.80;;;12.50;99.90;;;;;;5028743;28;19921;-67
2023/10/04 05:13:09;;;;;;;10.98;2.00;;;12.50;99.90;;;;;;5029748;28;20037;-67
2023/10/04 05:15:39;;;;;;;6.57;1.55;;;12.50;99.90;;;;;;5030947;28;20133;-67
2023/10/04 05:18:15;;;;;;;12.05;2.33;;;12.50;99.90;;;;;;4995103;28;20053;-67
2023/10/04 05:20:51;;;;;;;8.20;1.63;;;12.50;99.90;;;;;;5028890;28;20069;-67
2023/10/04 05:23:21;;;;;;;6.32;1.50;;;12.40;99.90;;;;;;5018319;28;20384;-83
2023/10/04 05:25:48;;;;;;;10.68;1.52;;;12.40;99.90;;;;;;5029458;28;20039;-67
2023/10/04 05:28:14;;;;;;;6.45;2.03;;;12.50;99.90;;;;;;5016636;28;20118;-67
2023/10/04 05:30:42;;;;;;;13.02;1.73;;;12.40;99.90;;;;;;5028750;28;20140;-67
2023/10/04 05:33:08;;;;;;;6.07;1.70;;;12.50;99.90;;;;;;5030078;28;20056;-67
2023/10/04 05:35:37;;;;;;;8.35;1.45;;;12.50;99.90;;;;;;5028647;28;20045;-67
2023/10/04 05:38:05;;;;;;;9.23;1.48;;;12.50;99.90;;;;;;5030425;28;20538;-67
2023/10/04 05:40:31;;;;;;;8.90;1.58;;;12.40;99.90;;;;;;5028429;28;20049;-67
2023/10/04 05:42:58;;;;;;;9.00;1.90;;;12.40;99.90;;;;;;5009814;28;20168;-68
2023/10/04 05:45:25;;;;;;;11.57;1.85;;;12.40;99.90;;;;;;5030394;28;20489;-67
2023/10/04 05:47:52;;;;;;;8.65;2.10;;;12.30;99.90;;;;;;5010870;28;20049;-67
2023/10/04 05:50:21;;;;;;;7.50;2.10;;;12.40;99.90;;;;;;5030332;28;20115;-67
2023/10/04 05:52:51;;;;;;;9.00;1.52;;;12.30;99.90;;;;;;5009045;28;20058;-67
2023/10/04 05:55:17;;;;;;;5.53;1.92;;;12.30;99.90;;;;;;5029794;28;20053;-67
2023/10/04 05:57:50;;;;;;;8.02;1.92;;;12.40;99.90;;;;;;5027742;28;20085;-67
2023/10/04 06:02:58;;;;;;;8.25;2.08;;;12.50;99.90;;;;;;5010313;28;20053;-67
2023/10/04 06:05:27;;;;;;;13.57;1.77;;;12.50;99.90;;;;;;5028017;28;20076;-67
2023/10/04 06:07:54;;;;;;;8.20;1.98;;;12.40;99.90;;;;;;5011676;28;20045;-66
2023/10/04 06:10:21;;;;;;;5.80;1.83;;;12.50;99.90;;;;;;5010779;28;20388;-66
2023/10/04 06:12:47;;;;;;;6.97;1.70;;;12.50;99.90;;;;;;5029781;28;20058;-67
2023/10/04 06:15:16;;;;;;;6.43;1.60;;;12.50;99.90;;;;;;5027929;28;20133;-67
2023/10/04 06:17:48;;;;;;;6.70;2.67;;;12.50;99.90;;;;;;5031383;28;20058;-81
2023/10/04 06:20:24;;;;;;;7.13;1.42;;;12.50;99.90;;;;;;5013382;28;20064;-67
2023/10/04 06:22:57;;;;;;;9.32;1.65;;;12.50;99.90;;;;;;5026557;28;20038;-70
2023/10/04 06:25:24;;;;;;;11.05;2.25;;;12.60;99.90;;;;;;5027020;28;20060;-67
2023/10/04 06:27:52;;;;;;;9.55;1.98;;;12.60;99.90;;;;;;5027780;28;20519;-67
2023/10/04 06:30:23;;;;;;;8.60;2.35;;;12.60;99.90;;;;;;5011850;28;20053;-67
2023/10/04 06:32:50;;;;;;;15.88;1.73;;;12.70;99.90;;;;;;5011117;28;20050;-67
2023/10/04 06:35:17;;;;;;;9.38;2.05;;;12.70;99.90;;;;;;5024958;28;20053;-67
2023/10/04 06:37:43;;;;;;;9.10;1.88;;;12.80;99.90;;;;;;4999463;28;20044;-67
2023/10/04 06:40:16;;;;;;;8.60;1.90;;;12.80;99.90;;;;;;5027926;28;20037;-66
2023/10/04 06:42:44;;;;;;;11.30;1.77;;;12.90;99.90;;;;;;5006873;28;20099;-67
2023/10/04 06:45:12;;;;;;;4.78;1.77;;;12.90;99.90;;;;;;5028101;28;20064;-67
2023/10/04 06:47:44;;;;;;;5.05;1.83;;;13.00;99.90;;;;;;5028369;28;20041;-67
2023/10/04 06:50:14;;;;;;;10.32;1.75;;;13.10;99.90;;;;;;5029421;28;20049;-67
2023/10/04 06:52:42;;;;;;;8.65;2.15;;;13.10;99.90;;;;;;5009639;28;20053;-67
2023/10/04 06:55:11;;;;;;;10.07;2.08;;;13.20;99.90;;;;;;5029301;28;20037;-77
2023/10/04 06:57:39;;;;;;;6.55;1.85;;;13.30;99.90;;;;;;5027776;28;20048;-67
2023/10/04 07:00:15;;;;;;;7.07;2.17;;;13.40;99.90;;;;;;5028457;28;20442;-68
2023/10/04 07:02:46;;;;;;;11.63;2.30;;;13.40;99.90;;;;;;5025077;28;20037;-66
2023/10/04 07:05:24;;;;;;;10.63;2.08;;;13.50;99.90;;;;;;5009364;28;20054;-67
2023/10/04 07:07:56;;;;;;;12.77;2.17;;;13.50;99.90;;;;;;4994151;28;20057;-68
2023/10/04 07:10:23;;;;;;;8.95;2.15;;;13.60;99.90;;;;;;5027092;28;20065;-67
2023/10/04 07:12:51;;;;;;;6.80;2.22;;;13.70;99.90;;;;;;5009894;28;20506;-67
2023/10/04 07:15:18;;;;;;;12.55;2.45;;;13.80;99.90;;;;;;5020132;28;20455;-67
2023/10/04 07:17:45;;;;;;;8.75;2.03;;;13.80;99.90;;;;;;5027905;28;20053;-67
2023/10/04 07:20:15;;;;;;;9.50;2.28;;;13.90;99.90;;;;;;5010781;28;20049;-67
2023/10/04 07:22:58;;;;;;;5.95;2.15;;;14.00;99.90;;;;;;5027025;28;20037;-67
2023/10/04 07:25:29;;;;;;;11.70;2.28;;;14.10;99.90;;;;;;4993134;28;20077;-67
2023/10/04 07:28:02;;;;;;;9.80;1.90;;;14.10;99.90;;;;;;5026539;28;20049;-67
2023/10/04 07:30:28;;;;;;;12.68;2.75;;;14.10;99.90;;;;;;5026733;28;20128;-67
2023/10/04 07:32:54;;;;;;;15.05;2.65;;;14.20;99.90;;;;;;4976625;28;20057;-67
2023/10/04 07:35:25;;;;;;;12.02;2.95;;;14.30;99.90;;;;;;5024733;28;20045;-67
2023/10/04 07:37:51;;;;;;;10.68;2.55;;;14.30;99.90;;;;;;5026745;28;20141;-67
2023/10/04 07:40:17;;;;;;;9.57;2.08;;;14.40;99.90;;;;;;5026758;28;20562;-66
2023/10/04 07:43:02;;;;;;;7.75;2.47;;;14.50;99.90;;;;;;5003350;28;20125;-67
2023/10/04 07:45:29;;;;;;;12.48;2.90;;;14.60;99.90;;;;;;5010370;28;20045;-67
2023/10/04 07:47:56;;;;;;;17.85;2.38;;;14.70;99.90;;;;;;5026317;28;20503;-67
2023/10/04 07:50:25;;;;;;;10.98;2.60;;;14.80;99.90;;;;;;5025041;28;20041;-67
2023/10/04 07:52:52;;;;;;;13.63;2.97;;;14.90;99.90;;;;;;5026777;28;20048;-66
2023/10/04 07:55:18;;;;;;;7.68;2.25;;;15.00;99.90;;;;;;5027572;28;20091;-67
2023/10/04 07:57:52;;;;;;;5.72;1.90;;;15.20;99.90;;;;;;5026662;28;20490;-67
2023/10/04 08:00:20;;;;;;;6.30;2.13;;;15.30;99.90;;;;;;5027926;28;20077;-66
2023/10/04 08:02:49;;;;;;;9.52;2.35;;;15.40;99.90;;;;;;5025996;28;20523;-67
2023/10/04 08:05:23;;;;;;;16.05;2.83;;;15.50;99.90;;;;;;5027623;28;20053;-67
2023/10/04 08:07:54;;;;;;;12.10;3.13;;;15.60;99.90;;;;;;5024928;28;20041;-67
2023/10/04 08:10:25;;;;;;;7.75;2.60;;;15.70;99.90;;;;;;5026111;28;20072;-67
2023/10/04 08:12:56;;;;;;;11.60;2.30;;;15.80;99.90;;;;;;5026558;28;20080;-66
2023/10/04 08:15:25;;;;;;;14.25;2.72;;;15.90;99.90;;;;;;5006310;28;20059;-67
2023/10/04 08:17:52;;;;;;;12.43;2.47;;;16.00;99.90;;;;;;5026243;28;20084;-67
2023/10/04 08:20:32;;;;;;;5.88;2.42;;;16.10;99.90;;;;;;5024629;28;20107;-66
2023/10/04 08:22:59;;;;;;;10.13;2.70;;;16.10;99.90;;;;;;5008803;28;20045;-76
2023/10/04 08:25:28;;;;;;;16.33;2.85;;;16.10;99.90;;;;;;5027060;28;20071;-66
2023/10/04 08:27:54;;;;;;;8.35;2.28;;;16.20;99.90;;;;;;5019313;28;20095;-67
2023/10/04 08:30:20;;;;;;;10.48;2.20;;;16.20;99.90;;;;;;5008481;28;20077;-67
2023/10/04 08:32:48;;;;;;;9.65;2.67;;;16.30;99.90;;;;;;5026114;28;20076;-67
2023/10/04 08:35:21;;;;;;;12.55;3.03;;;16.30;99.90;;;;;;5026591;28;20479;-67
2023/10/04 08:37:57;;;;;;;13.38;2.83;;;16.20;99.90;;;;;;5021049;28;20045;-66
2023/10/04 08:40:25;;;;;;;9.75;2.92;;;16.30;99.90;;;;;;5019263;28;20084;-85
2023/10/04 08:42:51;;;;;;;12.55;2.60;;;16.30;99.90;;;;;;5021505;28;20488;-67
2023/10/04 08:45:20;;;;;;;12.20;2.30;;;16.30;99.90;;;;;;5025210;28;20122;-66
2023/10/04 08:47:51;;;;;;;11.52;2.88;;;16.30;99.90;;;;;;5008585;28;20499;-67
2023/10/04 08:50:30;;;;;;;8.38;2.28;;;16.30;99.90;;;;;;5006295;28;20276;-66
2023/10/04 08:53:07;;;;;;;9.95;2.45;;;16.30;99.90;;;;;;5005833;28;20053;-66
2023/10/04 08:55:41;;;;;;;8.00;2.67;;;16.30;99.90;;;;;;5023086;28;20042;-82
2023/10/04 08:58:09;;;;;;;8.93;2.67;;;16.30;99.90;;;;;;5024989;28;20381;-67
2023/10/04 09:00:35;;;;;;;9.68;2.47;;;16.30;99.90;;;;;;5021358;28;20049;-67
2023/10/04 09:03:04;;;;;;;8.68;2.75;;;16.40;99.90;;;;;;5024378;28;20046;-66
2023/10/04 09:05:33;;;;;;;9.30;3.10;;;16.50;99.90;;;;;;5009000;28;20041;-66
2023/10/04 09:07:59;;;;;;;9.98;2.67;;;16.60;99.90;;;;;;5025806;28;20124;-67
2023/10/04 09:10:25;;;;;;;10.68;2.53;;;16.70;99.90;;;;;;5017332;28;20141;-67
2023/10/04 09:12:51;;;;;;;5.18;2.17;;;16.80;99.90;;;;;;5024685;28;20091;-66
2023/10/04 09:15:18;;;;;;;12.40;2.83;;;16.80;99.90;;;;;;4999384;28;20080;-66
2023/10/04 09:17:47;;;;;;;12.65;3.45;;;16.80;99.90;;;;;;5023991;28;20495;-85
2023/10/04 09:20:16;;;;;;;12.60;3.25;;;16.80;99.90;;;;;;5017891;28;20076;-66
2023/10/04 09:22:43;;;;;;;12.18;3.55;;;16.80;99.90;;;;;;5015305;28;20046;-66
2023/10/04 09:25:10;;;;;;;14.05;3.50;;;16.90;99.90;;;;;;5023572;28;20393;-66
2023/10/04 09:27:37;;;;;;;8.85;2.60;;;16.90;99.90;;;;;;5022711;28;20049;-66
2023/10/04 09:30:23;;;;;;;11.95;3.25;;;17.00;99.90;;;;;;5026283;28;20404;-66
2023/10/04 09:32:51;;;;;;;8.90;2.58;;;17.10;99.90;;;;;;4994884;28;20407;-66
2023/10/04 09:35:18;;;;;;;9.00;2.80;;;17.10;99.90;;;;;;5030020;28;20053;-66
2023/10/04 09:37:49;;;;;;;8.63;3.25;;;17.20;99.90;;;;;;5028545;28;20049;-65
2023/10/04 09:40:18;;;;;;;8.10;2.88;;;17.20;99.90;;;;;;5030096;28;20053;-66
2023/10/04 09:42:49;;;;;;;10.52;2.75;;;17.20;99.90;;;;;;5028609;28;20454;-66
2023/10/04 09:45:15;;;;;;;8.85;2.95;;;17.30;99.90;;;;;;4994260;28;20436;-66
2023/10/04 09:47:42;;;;;;;10.98;2.60;;;17.40;99.90;;;;;;5011599;28;20084;-66
2023/10/04 09:50:21;;;;;;;19.83;3.53;;;17.50;99.90;;;;;;5015321;28;20041;-66
2023/10/04 09:52:47;;;;;;;12.63;2.70;;;17.60;99.90;;;;;;5030374;28;20057;-66
2023/10/04 09:55:13;;;;;;;12.63;3.20;;;17.70;99.90;;;;;;5025970;28;20037;-66
2023/10/04 09:57:42;;;;;;;13.32;3.58;;;17.90;99.90;;;;;;5006963;28;20041;-66
2023/10/04 10:00:12;;;;;;;8.27;2.57;;;17.80;98.20;;;;;;5006280;28;20060;-66
2023/10/04 10:02:40;;;;;;;13.85;3.47;;;17.70;99.10;;;;;;5028786;28;20280;-66
2023/10/04 10:05:09;;;;;;;11.82;3.05;;;17.60;99.90;;;;;;5019598;28;20483;-66
2023/10/04 10:07:37;;;;;;;11.73;3.00;;;17.50;99.90;;;;;;5028447;28;20034;-66
2023/10/04 10:10:16;;;;;;;13.80;3.08;;;17.50;99.90;;;;;;5029969;28;20046;-66
2023/10/04 10:12:43;;;;;;;12.23;2.70;;;17.50;99.90;;;;;;5010938;28;20499;-66
2023/10/04 10:15:11;;;;;;;9.85;3.53;;;17.70;99.90;;;;;;5022311;28;20048;-65
2023/10/04 10:17:38;;;;;;;12.50;3.38;;;17.80;99.90;;;;;;5025880;28;20129;-65
2023/10/04 10:20:09;;;;;;;11.60;2.90;;;17.90;99.90;;;;;;5010584;28;20128;-65
2023/10/04 10:22:54;;;;;;;11.45;3.58;;;17.80;99.90;;;;;;5030255;28;20047;-67
2023/10/04 10:25:20;;;;;;;18.83;3.55;;;17.70;99.90;;;;;;5022442;28;20108;-66
2023/10/04 10:27:46;;;;;;;13.10;3.17;;;17.70;98.30;;;;;;5028032;28;20057;-66
2023/10/04 10:30:16;;;;;;;10.23;3.30;;;17.60;99.80;;;;;;4991046;28;20045;-66
2023/10/04 10:33:12;;;;;;;10.25;3.17;;;17.60;99.90;;;;;;5026000;28;20057;-65
2023/10/04 10:35:50;;;;;;;11.18;3.20;;;17.60;99.90;;;;;;5011676;28;20045;-66
2023/10/04 10:38:41;;;;;;;9.38;2.90;;;17.70;98.80;;;;;;5026611;28;20049;-65
2023/10/04 10:41:11;;;;;;;4.50;2.13;;;17.80;99.90;;;;;;5018049;28;20045;-65
2023/10/04 10:43:56;;;;;;;;;;;17.90;99.40;;;;;;5028517;28;20084;-65
2023/10/04 10:46:29;;;;;;;7.72;2.75;;;17.70;89.90;;;;;;5018402;28;20519;-66
2023/10/04 10:48:58;;;;;;;9.68;3.47;;;17.60;95.40;;;;;;5009140;28;20049;-66
2023/10/04 10:51:47;;;;;;;12.88;3.20;;;17.60;93.80;;;;;;5025721;28;20096;-66
2023/10/04 10:54:13;;;;;;;12.23;3.50;;;17.60;91.00;;;;;;5010153;28;20057;-65
2023/10/04 10:56:38;;;;;;;6.20;2.42;;;17.60;92.00;;;;;;5009445;28;20812;-65
2023/10/04 10:59:05;;;;;;;11.48;3.08;;;17.60;92.30;;;;;;5027521;28;20046;-65
2023/10/04 11:01:31;;;;;;;9.98;3.05;;;17.70;92.70;;;;;;5022286;28;20052;-65
2023/10/04 11:03:59;;;;;;;10.73;2.65;;;17.70;90.10;;;;;;5027163;28;20075;-65
2023/10/04 11:06:25;;;;;;;7.03;2.40;;;17.60;77.40;;;;;;5028318;28;20037;-65
2023/10/04 11:08:55;;;;;;;9.43;3.65;;;17.60;79.00;;;;;;5026096;28;20041;-65
2023/10/04 11:11:21;;;;;;;;;;;17.50;73.90;;;;;;5017319;28;20072;-65
2023/10/04 11:13:48;;;;;;;10.13;2.97;;;17.40;81.30;;;;;;5027885;28;19928;-64
2023/10/04 11:16:14;;;;;;;10.95;2.70;;;17.40;89.50;;;;;;5014172;28;20045;-65
2023/10/04 11:18:40;;;;;;;4.13;2.45;;;17.40;72.80;;;;;;5027903;28;20110;-65
2023/10/04 11:21:06;;;;;;;8.85;3.50;;;17.30;75.70;;;;;;5025855;28;20053;-65
2023/10/04 11:23:34;;;;;;;3.60;2.05;;;17.30;89.50;;;;;;5026832;28;20045;-65
2023/10/04 11:26:00;;;;;;;9.68;2.97;;;17.30;87.70;;;;;;5003790;28;20038;-65
2023/10/04 11:28:30;;;;;;;8.38;2.75;;;17.30;91.00;;;;;;5009553;28;20041;-65
2023/10/04 11:30:56;;;;;;;8.50;3.60;;;17.30;94.90;;;;;;5026486;28;20049;-65
2023/10/04 11:33:23;;;;;;;5.13;2.85;;;17.30;89.30;;;;;;5025548;28;20084;-65
2023/10/04 11:35:49;;;;;;;7.82;3.38;;;17.30;86.90;;;;;;5028376;28;20110;-65
2023/10/04 11:38:19;;;;;;;8.55;2.53;;;17.30;78.90;;;;;;5008033;28;20637;-65
2023/10/04 11:40:49;;;;;;;9.13;3.05;;;17.20;76.90;;;;;;5026776;28;20050;-65
2023/10/04 11:43:16;;;;;;;7.40;2.63;;;17.20;71.60;;;;;;5025273;28;20033;-65
2023/10/04 11:45:42;;;;;;;8.68;3.08;;;17.10;85.30;;;;;;5009146;28;20073;-65
2023/10/04 11:48:10;;;;;;;5.97;2.50;;;17.20;92.50;;;;;;5026364;28;20573;-65
2023/10/04 11:50:53;;;;;;;6.05;3.10;;;17.20;88.30;;;;;;5021219;28;20091;-65
2023/10/04 11:53:41;;;;;;;9.05;3.22;;;17.20;88.00;;;;;;5022823;28;20117;-65
2023/10/04 11:56:11;;;;;;;8.15;3.08;;;17.20;85.40;;;;;;5025522;28;20053;-65
2023/10/04 11:58:47;;;;;;;7.00;3.13;;;17.10;80.90;;;;;;5027287;28;20057;-65
2023/10/04 12:01:16;;;;;;;5.30;1.70;;;17.10;84.90;;;;;;5024011;28;20076;-65
2023/10/04 12:03:42;;;;;;;8.32;3.65;;;17.10;90.00;;;;;;5026968;28;20106;-65
2023/10/04 12:06:08;;;;;;;7.20;2.75;;;17.10;86.10;;;;;;5027573;28;20499;-66
2023/10/04 12:08:35;;;;;;;11.20;3.15;;;17.10;85.50;;;;;;5025176;28;20037;-65
2023/10/04 12:11:13;;;;;;;6.68;3.40;;;17.10;86.90;;;;;;5025825;28;20503;-66
2023/10/04 12:13:39;;;;;;;14.60;3.72;;;17.10;90.40;;;;;;5002151;28;20045;-66
2023/10/04 12:16:06;;;;;;;11.05;3.40;;;17.10;91.80;;;;;;5007597;28;20517;-66
2023/10/04 12:18:32;;;;;;;9.82;2.97;;;17.20;92.00;;;;;;4967626;28;20053;-65
2023/10/04 12:20:58;;;;;;;9.35;3.22;;;17.20;91.50;;;;;;4983769;28;20049;-65
2023/10/04 12:23:27;;;;;;;7.45;2.95;;;17.20;91.80;;;;;;4994806;28;20096;-66
2023/10/04 12:25:53;;;;;;;5.95;2.55;;;17.30;90.70;;;;;;4972439;28;20045;-66
2023/10/04 12:28:20;;;;;;;17.15;3.58;;;17.40;90.90;;;;;;5006560;28;20050;-66
2023/10/04 12:30:48;;;;;;;8.10;2.72;;;17.40;91.00;;;;;;4985992;28;20066;-65
2023/10/04 12:33:14;;;;;;;8.80;2.65;;;17.40;82.40;;;;;;4998303;28;20076;-66
2023/10/04 12:35:42;;;;;;;6.97;3.08;;;17.40;71.70;;;;;;4987016;28;20072;-65
2023/10/04 12:38:08;;;;;;;5.72;3.03;;;17.30;66.40;;;;;;4987733;28;20449;-65
2023/10/04 12:40:34;;;;;;;10.30;3.03;;;17.40;64.90;;;;;;4989554;28;20085;-65
2023/10/04 12:43:00;;;;;;;7.45;2.60;;;17.30;71.30;;;;;;4968084;28;20176;-65
2023/10/04 12:45:29;;;;;;;10.07;3.78;;;17.40;77.80;;;;;;5002523;28;20525;-66
2023/10/04 12:47:55;;;;;;;8.45;2.80;;;17.40;78.70;;;;;;4987984;28;20180;-66
2023/10/04 12:50:22;;;;;;;10.00;2.70;;;17.50;81.10;;;;;;4967481;28;20642;-65
2023/10/04 12:52:48;;;;;;;8.98;3.58;;;17.50;80.80;;;;;;5000403;28;20046;-66
2023/10/04 12:55:14;;;;;;;12.63;3.55;;;17.60;84.40;;;;;;5004861;28;20058;-65
2023/10/04 12:57:41;;;;;;;8.80;2.90;;;17.60;73.50;;;;;;4967319;28;20551;-65
2023/10/04 13:00:15;;;;;;;10.98;3.28;;;17.60;71.30;;;;;;5002037;28;20045;-65
2023/10/04 13:02:45;;;;;;;8.23;2.75;;;17.60;71.10;;;;;;4987134;28;20050;-65